createdAt,value
2018-01-27T00:00:05.131Z,7.51
2018-01-27T00:01:06.029Z,7.49
2018-01-27T00:02:06.774Z,7.48
2018-01-27T00:03:04.746Z,7.5
2018-01-27T00:04:04.064Z,7.45
2018-01-27T00:05:04.060Z,7.44
2018-01-27T00:06:04.486Z,7.43
2018-01-27T00:07:04.855Z,7.43
2018-01-27T00:08:06.692Z,7.43
2018-01-27T00:09:04.291Z,7.42
2018-01-27T00:10:04.413Z,7.41
2018-01-27T00:11:05.112Z,7.41
2018-01-27T00:12:04.950Z,7.43
2018-01-27T00:13:05.864Z,7.42
2018-01-27T00:14:05.330Z,7.43
2018-01-27T00:15:04.568Z,7.42
2018-01-27T00:16:04.004Z,7.4
2018-01-27T00:17:04.005Z,7.39
2018-01-27T00:18:05.072Z,7.38
2018-01-27T00:19:04.158Z,7.37
2018-01-27T00:20:05.630Z,7.32
2018-01-27T00:21:04.654Z,7.34
2018-01-27T00:22:04.243Z,7.35
2018-01-27T00:23:05.072Z,7.33
2018-01-27T00:24:04.438Z,7.35
2018-01-27T00:25:04.382Z,7.35
2018-01-27T00:26:04.168Z,7.34
2018-01-27T00:27:04.691Z,7.33
2018-01-27T00:28:04.390Z,7.31
2018-01-27T00:29:05.198Z,7.31
2018-01-27T00:30:06.465Z,7.31
2018-01-27T00:31:05.059Z,7.3
2018-01-27T00:32:04.947Z,7.3
2018-01-27T00:33:04.715Z,7.3
2018-01-27T00:34:05.143Z,7.28
2018-01-27T00:35:05.868Z,7.26
2018-01-27T00:36:04.743Z,7.26
2018-01-27T00:37:03.999Z,7.26
2018-01-27T00:38:04.647Z,7.27
2018-01-27T00:39:04.689Z,7.25
2018-01-27T00:40:05.967Z,7.26
2018-01-27T00:41:04.073Z,7.26
2018-01-27T00:42:04.172Z,7.26
2018-01-27T00:43:05.194Z,7.27
2018-01-27T00:44:06.412Z,7.26
2018-01-27T00:45:04.316Z,7.25
2018-01-27T00:46:05.521Z,7.24
2018-01-27T00:47:07.952Z,7.21
2018-01-27T00:48:05.544Z,7.23
2018-01-27T00:49:05.540Z,7.2
2018-01-27T00:50:07.914Z,7.19
2018-01-27T00:51:05.937Z,7.21
2018-01-27T00:52:04.492Z,7.21
2018-01-27T00:53:04.806Z,7.2
2018-01-27T00:54:04.163Z,7.2
2018-01-27T00:55:03.977Z,7.23
2018-01-27T00:56:04.079Z,7.22
2018-01-27T00:57:04.705Z,7.21
2018-01-27T00:58:05.130Z,7.21
2018-01-27T00:59:04.026Z,7.2
2018-01-27T01:00:04.812Z,7.18
2018-01-27T01:01:04.765Z,7.16
2018-01-27T01:02:06.247Z,7.14
2018-01-27T01:03:03.992Z,7.14
2018-01-27T01:04:05.018Z,7.13
2018-01-27T01:05:04.174Z,7.14
2018-01-27T01:06:05.208Z,7.16
2018-01-27T01:07:06.144Z,7.14
2018-01-27T01:08:05.227Z,7.14
2018-01-27T01:09:05.056Z,7.12
2018-01-27T01:10:04.596Z,7.14
2018-01-27T01:11:04.026Z,7.13
2018-01-27T01:12:05.807Z,7.13
2018-01-27T01:13:06.233Z,7.12
2018-01-27T01:14:04.818Z,7.13
2018-01-27T01:15:04.902Z,7.14
2018-01-27T01:16:04.653Z,7.12
2018-01-27T01:17:04.313Z,7.12
2018-01-27T01:18:03.800Z,7.1
2018-01-27T01:19:04.781Z,7.12
2018-01-27T01:20:04.833Z,7.1
2018-01-27T01:21:03.860Z,7.12
2018-01-27T01:22:04.248Z,7.15
2018-01-27T01:23:04.051Z,7.13
2018-01-27T01:24:03.979Z,7.13
2018-01-27T01:25:04.330Z,7.13
2018-01-27T01:26:04.183Z,7.14
2018-01-27T01:27:04.077Z,7.14
2018-01-27T01:28:05.303Z,7.14
2018-01-27T01:29:04.949Z,7.14
2018-01-27T01:30:04.278Z,7.17
2018-01-27T01:31:04.616Z,7.15
2018-01-27T01:32:06.008Z,7.17
2018-01-27T01:33:05.246Z,7.17
2018-01-27T01:34:04.654Z,7.18
2018-01-27T01:35:04.132Z,7.17
2018-01-27T01:36:05.703Z,7.19
2018-01-27T01:37:04.945Z,7.18
2018-01-27T01:38:05.229Z,7.18
2018-01-27T01:39:04.608Z,7.18
2018-01-27T01:40:04.054Z,7.17
2018-01-27T01:41:04.182Z,7.18
2018-01-27T01:42:04.120Z,7.17
2018-01-27T01:43:06.232Z,7.18
2018-01-27T01:44:05.795Z,7.18
2018-01-27T01:45:05.072Z,7.18
2018-01-27T01:46:04.077Z,7.2
2018-01-27T01:47:05.801Z,7.17
2018-01-27T01:48:04.068Z,7.16
2018-01-27T01:49:04.143Z,7.14
2018-01-27T01:50:04.902Z,7.13
2018-01-27T01:51:05.442Z,7.13
2018-01-27T01:52:05.109Z,7.16
2018-01-27T01:53:04.065Z,7.15
2018-01-27T01:54:06.585Z,7.16
2018-01-27T01:55:04.207Z,7.14
2018-01-27T01:56:04.117Z,7.13
2018-01-27T01:57:04.222Z,7.15
2018-01-27T01:58:04.051Z,7.14
2018-01-27T01:59:06.181Z,7.15
2018-01-27T02:00:05.423Z,7.15
2018-01-27T02:01:04.564Z,7.15
2018-01-27T02:02:04.767Z,7.15
2018-01-27T02:03:04.075Z,7.16
2018-01-27T02:04:05.498Z,7.15
2018-01-27T02:05:04.213Z,7.16
2018-01-27T02:06:04.933Z,7.2
2018-01-27T02:07:04.311Z,7.19
2018-01-27T02:08:05.429Z,7.18
2018-01-27T02:09:05.041Z,7.18
2018-01-27T02:10:04.546Z,7.18
2018-01-27T02:11:04.026Z,7.16
2018-01-27T02:12:04.894Z,7.15
2018-01-27T02:13:04.113Z,7.15
2018-01-27T02:14:05.642Z,7.16
2018-01-27T02:15:04.278Z,7.16
2018-01-27T02:16:04.866Z,7.15
2018-01-27T02:17:05.654Z,7.16
2018-01-27T02:18:04.825Z,7.17
2018-01-27T02:19:04.756Z,7.16
2018-01-27T02:20:05.052Z,7.16
2018-01-27T02:21:05.648Z,7.16
2018-01-27T02:22:04.835Z,7.14
2018-01-27T02:23:05.318Z,7.14
2018-01-27T02:24:05.981Z,7.14
2018-01-27T02:25:04.285Z,7.12
2018-01-27T02:26:05.335Z,7.17
2018-01-27T02:27:04.296Z,7.17
2018-01-27T02:28:04.040Z,7.16
2018-01-27T02:29:05.037Z,7.14
2018-01-27T02:30:04.406Z,7.13
2018-01-27T02:31:05.914Z,7.15
2018-01-27T02:32:05.079Z,7.17
2018-01-27T02:33:04.697Z,7.17
2018-01-27T02:34:04.182Z,7.16
2018-01-27T02:35:04.894Z,7.18
2018-01-27T02:36:04.400Z,7.17
2018-01-27T02:37:05.864Z,7.17
2018-01-27T02:38:04.977Z,7.18
2018-01-27T02:39:04.234Z,7.19
2018-01-27T02:40:04.712Z,7.16
2018-01-27T02:41:04.323Z,7.19
2018-01-27T02:42:04.245Z,7.15
2018-01-27T02:43:05.059Z,7.15
2018-01-27T02:44:04.949Z,7.15
2018-01-27T02:45:05.169Z,7.15
2018-01-27T02:46:04.162Z,7.14
2018-01-27T02:47:04.322Z,7.13
2018-01-27T02:48:04.470Z,7.1
2018-01-27T02:49:04.553Z,7.11
2018-01-27T02:50:05.041Z,7.11
2018-01-27T02:51:06.017Z,7.1
2018-01-27T02:52:04.921Z,7.12
2018-01-27T02:53:04.328Z,7.12
2018-01-27T02:54:04.130Z,7.15
2018-01-27T02:55:04.111Z,7.15
2018-01-27T02:56:04.222Z,7.15
2018-01-27T02:57:05.650Z,7.14
2018-01-27T02:58:04.205Z,7.13
2018-01-27T02:59:04.319Z,7.12
2018-01-27T03:00:04.386Z,7.11
2018-01-27T03:01:04.370Z,7.07
2018-01-27T03:02:04.424Z,7.06
2018-01-27T03:03:05.470Z,7.05
2018-01-27T03:04:05.005Z,7.06
2018-01-27T03:05:04.693Z,7.05
2018-01-27T03:06:04.220Z,7.06
2018-01-27T03:07:04.018Z,7.09
2018-01-27T03:08:04.336Z,7.09
2018-01-27T03:09:04.667Z,7.1
2018-01-27T03:10:04.062Z,7.08
2018-01-27T03:11:04.066Z,7.11
2018-01-27T03:12:04.056Z,7.11
2018-01-27T03:13:04.323Z,7.13
2018-01-27T03:14:04.375Z,7.14
2018-01-27T03:15:04.497Z,7.12
2018-01-27T03:16:04.009Z,7.14
2018-01-27T03:17:04.325Z,7.11
2018-01-27T03:18:04.147Z,7.12
2018-01-27T03:19:04.379Z,7.13
2018-01-27T03:20:03.956Z,7.14
2018-01-27T03:21:04.687Z,7.13
2018-01-27T03:22:05.046Z,7.16
2018-01-27T03:23:05.035Z,7.16
2018-01-27T03:24:04.398Z,7.16
2018-01-27T03:25:04.860Z,7.19
2018-01-27T03:26:04.983Z,7.19
2018-01-27T03:27:04.949Z,7.18
2018-01-27T03:28:04.862Z,7.2
2018-01-27T03:29:04.315Z,7.2
2018-01-27T03:30:05.292Z,7.2
2018-01-27T03:31:04.302Z,7.2
2018-01-27T03:32:05.008Z,7.23
2018-01-27T03:33:04.921Z,7.22
2018-01-27T03:34:04.466Z,7.22
2018-01-27T03:35:05.103Z,7.22
2018-01-27T03:36:05.624Z,7.21
2018-01-27T03:37:04.339Z,7.25
2018-01-27T03:38:05.571Z,7.22
2018-01-27T03:39:05.247Z,7.21
2018-01-27T03:40:04.244Z,7.21
2018-01-27T03:41:04.494Z,7.19
2018-01-27T03:42:04.569Z,7.21
2018-01-27T03:43:04.713Z,7.21
2018-01-27T03:44:06.358Z,7.19
2018-01-27T03:45:04.660Z,7.19
2018-01-27T03:46:04.614Z,7.2
2018-01-27T03:47:05.514Z,7.18
2018-01-27T03:48:06.054Z,7.2
2018-01-27T03:49:05.261Z,7.21
2018-01-27T03:50:05.339Z,7.19
2018-01-27T03:51:04.353Z,7.17
2018-01-27T03:52:07.830Z,7.15
2018-01-27T03:53:04.488Z,7.18
2018-01-27T03:54:05.771Z,7.19
2018-01-27T03:55:06.739Z,7.16
2018-01-27T03:56:05.955Z,7.17
2018-01-27T03:57:06.269Z,7.16
2018-01-27T03:58:07.390Z,7.16
2018-01-27T03:59:04.490Z,7.16
2018-01-27T04:00:04.888Z,7.14
2018-01-27T04:01:05.011Z,7.15
2018-01-27T04:02:04.347Z,7.14
2018-01-27T04:03:05.379Z,7.14
2018-01-27T04:04:04.293Z,7.13
2018-01-27T04:06:04.393Z,7.13
2018-01-27T04:07:07.886Z,7.11
2018-01-27T04:08:09.436Z,7.11
2018-01-27T04:09:04.882Z,7.1
2018-01-27T04:10:05.277Z,7.12
2018-01-27T04:11:04.248Z,7.12
2018-01-27T04:12:05.199Z,7.11
2018-01-27T04:13:05.986Z,7.12
2018-01-27T04:14:06.099Z,7.11
2018-01-27T04:15:05.143Z,7.13
2018-01-27T04:16:04.474Z,7.13
2018-01-27T04:17:05.974Z,7.11
2018-01-27T04:18:07.025Z,7.11
2018-01-27T04:19:04.659Z,7.11
2018-01-27T04:20:05.517Z,7.12
2018-01-27T04:21:07.470Z,7.1
2018-01-27T04:22:06.817Z,7.1
2018-01-27T04:23:05.537Z,7.08
2018-01-27T04:24:04.596Z,7.09
2018-01-27T04:25:04.187Z,7.08
2018-01-27T04:26:04.584Z,7.08
2018-01-27T04:27:05.218Z,7.09
2018-01-27T04:28:04.823Z,7.09
2018-01-27T04:29:04.716Z,7.1
2018-01-27T04:30:04.353Z,7.12
2018-01-27T04:31:05.786Z,7.13
2018-01-27T04:32:05.992Z,7.15
2018-01-27T04:33:05.772Z,7.16
2018-01-27T04:34:06.492Z,7.13
2018-01-27T04:35:06.008Z,7.15
2018-01-27T04:36:04.510Z,7.15
2018-01-27T04:37:05.477Z,7.13
2018-01-27T04:38:04.756Z,7.1
2018-01-27T04:39:04.572Z,7.13
2018-01-27T04:40:04.797Z,7.14
2018-01-27T04:41:04.113Z,7.15
2018-01-27T04:42:06.369Z,7.15
2018-01-27T04:43:05.150Z,7.11
2018-01-27T04:44:05.655Z,7.13
2018-01-27T04:45:04.637Z,7.15
2018-01-27T04:46:05.167Z,7.15
2018-01-27T04:47:04.870Z,7.16
2018-01-27T04:48:04.553Z,7.14
2018-01-27T04:49:04.419Z,7.12
2018-01-27T04:50:06.870Z,7.14
2018-01-27T04:51:07.632Z,7.16
2018-01-27T04:52:10.461Z,7.12
2018-01-27T04:53:04.469Z,7.09
2018-01-27T04:54:07.303Z,7.11
2018-01-27T04:55:09.502Z,7.1
2018-01-27T04:56:07.540Z,7.13
2018-01-27T04:57:09.742Z,7.12
2018-01-27T04:58:07.244Z,7.1
2018-01-27T04:59:08.536Z,7.12
2018-01-27T05:00:08.467Z,7.13
2018-01-27T05:01:07.164Z,7.12
2018-01-27T05:02:18.667Z,7.12
2018-01-27T05:03:06.963Z,7.15
2018-01-27T05:04:06.833Z,7.15
2018-01-27T05:05:06.171Z,7.14
2018-01-27T05:06:06.199Z,7.14
2018-01-27T05:07:10.170Z,7.05
2018-01-27T05:08:09.563Z,7.07
2018-01-27T05:09:13.590Z,7.08
2018-01-27T05:10:07.061Z,7.1
2018-01-27T05:11:05.997Z,7.11
2018-01-27T05:12:05.580Z,7.11
2018-01-27T05:13:07.942Z,7.13
2018-01-27T05:14:07.818Z,7.08
2018-01-27T05:15:07.476Z,7.03
2018-01-27T05:16:06.976Z,7
2018-01-27T05:17:05.577Z,7.02
2018-01-27T05:18:05.594Z,7.01
2018-01-27T05:19:09.755Z,7.05
2018-01-27T05:20:06.980Z,7.09
2018-01-27T05:21:08.471Z,7.07
2018-01-27T05:22:08.119Z,7.08
2018-01-27T05:23:06.796Z,7.06
2018-01-27T05:24:06.615Z,7.06
2018-01-27T05:25:10.252Z,7.07
2018-01-27T05:26:06.877Z,7.07
2018-01-27T05:27:05.817Z,7.06
2018-01-27T05:28:08.732Z,7.05
2018-01-27T05:29:08.649Z,7.05
2018-01-27T05:30:07.379Z,7.03
2018-01-27T05:31:06.340Z,7.06
2018-01-27T05:32:07.335Z,7.05
2018-01-27T05:33:07.855Z,7.07
2018-01-27T05:34:06.284Z,7.09
2018-01-27T05:35:05.988Z,7.11
2018-01-27T05:36:06.200Z,7.1
2018-01-27T05:37:06.026Z,7.08
2018-01-27T05:38:05.383Z,7.07
2018-01-27T05:39:05.038Z,7.07
2018-01-27T05:40:07.011Z,7.07
2018-01-27T05:41:04.933Z,7.06
2018-01-27T05:42:08.592Z,7.03
2018-01-27T05:43:07.178Z,7.06
2018-01-27T05:44:08.269Z,7.06
2018-01-27T05:45:08.912Z,7.06
2018-01-27T05:46:06.170Z,7.05
2018-01-27T05:47:05.928Z,7.06
2018-01-27T05:48:06.086Z,7.06
2018-01-27T05:49:06.521Z,7.06
2018-01-27T05:50:04.773Z,7.04
2018-01-27T05:51:04.981Z,7.08
2018-01-27T05:52:04.368Z,7.03
2018-01-27T05:53:04.382Z,7.04
2018-01-27T05:54:04.488Z,7.04
2018-01-27T05:55:04.538Z,6.99
2018-01-27T05:56:04.369Z,6.95
2018-01-27T05:59:04.664Z,6.95
2018-01-27T06:00:04.257Z,6.94
2018-01-27T06:01:04.457Z,6.96
2018-01-27T06:02:04.405Z,6.99
2018-01-27T06:03:04.344Z,6.95
2018-01-27T06:04:04.501Z,6.94
2018-01-27T06:05:04.254Z,6.91
2018-01-27T06:06:04.386Z,6.89
2018-01-27T06:07:04.440Z,6.91
2018-01-27T06:08:04.373Z,6.95
2018-01-27T06:09:04.409Z,6.95
2018-01-27T06:10:04.151Z,6.94
2018-01-27T06:11:04.469Z,6.92
2018-01-27T06:12:04.395Z,6.95
2018-01-27T06:13:04.314Z,6.93
2018-01-27T06:14:04.531Z,6.91
2018-01-27T06:15:04.198Z,6.95
2018-01-27T06:16:04.212Z,6.89
2018-01-27T06:17:04.338Z,6.91
2018-01-27T06:18:04.353Z,6.89
2018-01-27T06:19:04.296Z,6.85
2018-01-27T06:20:04.243Z,6.92
2018-01-27T06:21:04.237Z,6.92
2018-01-27T06:22:04.487Z,6.93
2018-01-27T06:23:04.386Z,6.92
2018-01-27T06:24:04.495Z,6.95
2018-01-27T06:25:04.540Z,6.93
2018-01-27T06:26:04.303Z,6.96
2018-01-27T06:27:04.313Z,6.95
2018-01-27T06:28:04.437Z,6.96
2018-01-27T06:29:04.411Z,6.97
2018-01-27T06:30:04.464Z,6.96
2018-01-27T06:31:04.381Z,6.97
2018-01-27T06:32:04.428Z,6.96
2018-01-27T06:33:04.444Z,6.96
2018-01-27T06:34:04.478Z,6.96
2018-01-27T06:35:04.326Z,6.96
2018-01-27T06:36:04.638Z,6.96
2018-01-27T06:37:04.626Z,6.98
2018-01-27T06:38:04.900Z,6.96
2018-01-27T06:39:04.293Z,6.92
2018-01-27T06:40:06.603Z,6.89
2018-01-27T06:41:04.536Z,6.93
2018-01-27T06:42:04.542Z,6.95
2018-01-27T06:43:04.661Z,6.97
2018-01-27T06:44:04.457Z,6.97
2018-01-27T06:45:04.467Z,6.98
2018-01-27T06:46:04.539Z,6.97
2018-01-27T06:47:04.593Z,6.99
2018-01-27T06:48:04.449Z,7.01
2018-01-27T06:49:04.449Z,7.01
2018-01-27T06:50:04.894Z,7.02
2018-01-27T06:51:04.620Z,7
2018-01-27T06:52:04.715Z,7.01
2018-01-27T06:53:03.692Z,7
2018-01-27T06:54:03.754Z,7
2018-01-27T06:55:03.596Z,7.02
2018-01-27T06:56:03.720Z,7.01
2018-01-27T06:57:03.786Z,7.04
2018-01-27T06:58:03.689Z,7.04
2018-01-27T06:59:03.636Z,7.03
2018-01-27T07:00:03.631Z,7.01
2018-01-27T07:01:03.740Z,7.03
2018-01-27T07:02:03.954Z,7.04
2018-01-27T07:03:03.618Z,7.02
2018-01-27T07:04:03.811Z,7.02
2018-01-27T07:05:03.638Z,7.02
2018-01-27T07:06:04.093Z,7.02
2018-01-27T07:07:03.913Z,7.03
2018-01-27T07:08:03.776Z,7.04
2018-01-27T07:09:03.694Z,7.03
2018-01-27T07:10:03.814Z,7.02
2018-01-27T07:11:03.617Z,7.03
2018-01-27T07:12:03.828Z,7.03
2018-01-27T07:13:03.895Z,6.98
2018-01-27T07:14:03.747Z,6.99
2018-01-27T07:15:03.877Z,6.98
2018-01-27T07:16:03.870Z,7.01
2018-01-27T07:17:03.739Z,7.03
2018-01-27T07:18:03.818Z,6.96
2018-01-27T07:19:03.935Z,6.94
2018-01-27T07:20:03.986Z,6.96
2018-01-27T07:21:03.784Z,6.89
2018-01-27T07:22:03.592Z,6.95
2018-01-27T07:23:03.930Z,6.96
2018-01-27T07:24:03.823Z,7
2018-01-27T07:25:03.916Z,7
2018-01-27T07:26:03.858Z,7.02
2018-01-27T07:27:03.631Z,6.99
2018-01-27T07:28:03.751Z,7.01
2018-01-27T07:29:03.918Z,7.01
2018-01-27T07:30:03.922Z,6.95
2018-01-27T07:31:04.031Z,6.99
2018-01-27T07:32:03.994Z,6.98
2018-01-27T07:33:03.648Z,7
2018-01-27T07:34:03.746Z,7
2018-01-27T07:35:03.905Z,7.01
2018-01-27T07:36:03.799Z,6.98
2018-01-27T07:37:03.803Z,6.97
2018-01-27T07:38:04.061Z,6.99
2018-01-27T07:39:03.960Z,6.99
2018-01-27T07:40:04.768Z,6.97
2018-01-27T07:41:04.116Z,6.95
2018-01-27T07:42:03.759Z,6.92
2018-01-27T07:43:03.877Z,6.87
2018-01-27T07:44:03.834Z,6.81
2018-01-27T07:45:04.102Z,6.82
2018-01-27T07:46:03.681Z,6.78
2018-01-27T07:47:03.636Z,6.75
2018-01-27T07:48:03.992Z,6.78
2018-01-27T07:49:03.886Z,6.79
2018-01-27T07:50:03.801Z,6.79
2018-01-27T07:51:03.674Z,6.8
2018-01-27T07:52:03.754Z,6.84
2018-01-27T07:53:03.950Z,6.86
2018-01-27T07:54:03.744Z,6.82
2018-01-27T07:55:03.859Z,6.8
2018-01-27T07:56:03.864Z,6.76
2018-01-27T07:57:03.918Z,6.81
2018-01-27T07:58:04.049Z,6.83
2018-01-27T07:59:03.863Z,6.83
2018-01-27T08:00:03.917Z,6.78
2018-01-27T08:01:04.196Z,6.8
2018-01-27T08:02:03.998Z,6.81
2018-01-27T08:03:03.978Z,6.79
2018-01-27T08:04:03.749Z,6.79
2018-01-27T08:05:04.083Z,6.77
2018-01-27T08:06:03.892Z,6.76
2018-01-27T08:07:03.930Z,6.78
2018-01-27T08:08:03.906Z,6.78
2018-01-27T08:09:03.889Z,6.81
2018-01-27T08:10:03.940Z,6.81
2018-01-27T08:11:03.752Z,6.8
2018-01-27T08:12:04.025Z,6.8
2018-01-27T08:13:03.998Z,6.79
2018-01-27T08:14:03.990Z,6.79
2018-01-27T08:15:03.812Z,6.78
2018-01-27T08:16:04.002Z,6.72
2018-01-27T08:17:04.018Z,6.76
2018-01-27T08:18:03.702Z,6.77
2018-01-27T08:19:03.899Z,6.77
2018-01-27T08:20:03.917Z,6.69
2018-01-27T08:21:04.604Z,6.69
2018-01-27T08:22:04.056Z,6.66
2018-01-27T08:23:03.876Z,6.69
2018-01-27T08:24:04.099Z,6.6
2018-01-27T08:25:03.970Z,6.64
2018-01-27T08:26:03.786Z,6.61
2018-01-27T08:27:03.949Z,6.62
2018-01-27T08:28:04.291Z,6.58
2018-01-27T08:29:03.936Z,6.62
2018-01-27T08:30:04.150Z,6.62
2018-01-27T08:31:04.009Z,6.62
2018-01-27T08:32:04.092Z,6.64
2018-01-27T08:33:04.041Z,6.66
2018-01-27T08:36:18.105Z,6.59
2018-01-27T08:37:03.923Z,6.62
2018-01-27T08:38:03.871Z,6.65
2018-01-27T08:39:04.105Z,6.63
2018-01-27T08:40:03.886Z,6.65
2018-01-27T08:41:03.944Z,6.65
2018-01-27T08:42:04.072Z,6.6
2018-01-27T08:43:04.119Z,6.61
2018-01-27T08:44:04.164Z,6.6
2018-01-27T08:45:03.911Z,6.56
2018-01-27T08:46:04.088Z,6.55
2018-01-27T08:47:04.003Z,6.6
2018-01-27T08:48:03.998Z,6.59
2018-01-27T08:49:04.005Z,6.58
2018-01-27T08:50:03.956Z,6.61
2018-01-27T08:51:04.035Z,6.65
2018-01-27T08:52:04.050Z,6.63
2018-01-27T08:53:04.822Z,6.68
2018-01-27T08:54:05.625Z,6.6
2018-01-27T08:55:05.144Z,6.66
2018-01-27T08:56:05.180Z,6.71
2018-01-27T08:57:05.249Z,6.7
2018-01-27T08:58:06.462Z,6.65
2018-01-27T08:59:05.300Z,6.65
2018-01-27T09:00:04.675Z,6.67
2018-01-27T09:01:05.081Z,6.66
2018-01-27T09:02:05.283Z,6.55
2018-01-27T09:03:04.669Z,6.67
2018-01-27T09:04:05.226Z,6.62
2018-01-27T09:05:05.119Z,6.63
2018-01-27T09:06:29.136Z,6.72
2018-01-27T09:07:04.016Z,6.66
2018-01-27T09:08:03.886Z,6.64
2018-01-27T09:09:04.162Z,6.7
2018-01-27T09:10:20.344Z,6.71
2018-01-27T09:11:20.391Z,6.72
2018-01-27T09:13:20.315Z,6.7
2018-01-27T09:14:20.335Z,6.74
2018-01-27T09:15:20.350Z,6.68
2018-01-27T09:16:20.427Z,6.69
2018-01-27T09:17:20.357Z,6.68
2018-01-27T09:18:20.311Z,6.75
2018-01-27T09:19:20.271Z,6.75
2018-01-27T09:20:20.042Z,6.75
2018-01-27T09:21:20.099Z,6.71
2018-01-27T09:22:20.636Z,6.71
2018-01-27T09:23:20.254Z,6.72
2018-01-27T09:24:19.147Z,6.71
2018-01-27T09:25:19.155Z,6.64
2018-01-27T09:26:19.138Z,6.71
2018-01-27T09:27:19.716Z,6.74
2018-01-27T09:28:19.356Z,6.67
2018-01-27T09:29:18.894Z,6.65
2018-01-27T09:30:19.495Z,6.58
2018-01-27T09:31:19.312Z,6.69
2018-01-27T09:32:19.073Z,6.7
2018-01-27T09:33:19.029Z,6.75
2018-01-27T09:34:18.978Z,6.73
2018-01-27T09:35:19.222Z,6.72
2018-01-27T09:36:19.170Z,6.74
2018-01-27T09:37:19.263Z,6.71
2018-01-27T09:38:19.212Z,6.65
2018-01-27T09:39:19.095Z,6.68
2018-01-27T09:40:19.238Z,6.71
2018-01-27T09:41:19.138Z,6.72
2018-01-27T09:42:19.080Z,6.77
2018-01-27T09:43:19.267Z,6.71
2018-01-27T09:44:19.122Z,6.71
2018-01-27T09:45:19.100Z,6.79
2018-01-27T09:46:18.990Z,6.77
2018-01-27T09:47:19.296Z,6.74
2018-01-27T09:48:20.261Z,6.75
2018-01-27T09:49:19.272Z,6.78
2018-01-27T09:50:21.243Z,6.77
2018-01-27T09:51:19.246Z,6.73
2018-01-27T09:52:19.316Z,6.75
2018-01-27T09:53:19.076Z,6.76
2018-01-27T09:54:19.219Z,6.81
2018-01-27T09:55:19.260Z,6.83
2018-01-27T09:56:19.112Z,6.82
2018-01-27T09:57:50.933Z,6.82
2018-01-27T09:58:23.141Z,6.82
2018-01-27T09:59:23.195Z,6.83
2018-01-27T10:00:21.870Z,6.83
2018-01-27T10:01:22.179Z,6.84
2018-01-27T10:02:23.393Z,6.83
2018-01-27T10:03:20.833Z,6.85
2018-01-27T10:04:20.476Z,6.84
2018-01-27T10:05:23.052Z,6.84
2018-01-27T10:06:21.462Z,6.83
2018-01-27T10:07:20.409Z,6.81
2018-01-27T10:08:20.345Z,6.84
2018-01-27T10:09:50.380Z,6.85
2018-01-27T10:10:23.873Z,6.86
2018-01-27T10:11:31.214Z,6.86
2018-01-27T10:12:25.273Z,6.84
2018-01-27T10:13:21.844Z,6.84
2018-01-27T10:14:20.365Z,6.88
2018-01-27T10:15:19.992Z,6.88
2018-01-27T10:16:23.503Z,6.85
2018-01-27T10:17:20.985Z,6.83
2018-01-27T10:18:18.861Z,6.79
2018-01-27T10:19:49.503Z,6.7
2018-01-27T10:20:20.276Z,6.74
2018-01-27T10:21:20.207Z,6.78
2018-01-27T10:22:20.066Z,6.77
2018-01-27T10:23:19.734Z,6.75
2018-01-27T10:24:19.567Z,6.73
2018-01-27T10:25:24.683Z,6.75
2018-01-27T10:26:27.656Z,6.75
2018-01-27T10:27:20.809Z,6.68
2018-01-27T10:28:25.119Z,6.69
2018-01-27T10:29:20.871Z,6.73
2018-01-27T10:30:22.414Z,6.69
2018-01-27T10:31:19.407Z,6.72
2018-01-27T10:32:23.209Z,6.76
2018-01-27T10:33:20.126Z,6.75
2018-01-27T10:34:19.850Z,6.8
2018-01-27T10:35:22.216Z,6.8
2018-01-27T10:36:23.588Z,6.83
2018-01-27T10:37:22.018Z,6.83
2018-01-27T10:38:21.118Z,6.84
2018-01-27T10:39:18.749Z,6.88
2018-01-27T10:40:20.657Z,6.79
2018-01-27T10:41:20.922Z,6.79
2018-01-27T10:42:21.042Z,6.8
2018-01-27T10:43:19.575Z,6.82
2018-01-27T10:44:22.235Z,6.85
2018-01-27T10:45:21.201Z,6.88
2018-01-27T10:46:20.203Z,6.8
2018-01-27T10:47:20.109Z,6.82
2018-01-27T10:48:19.312Z,6.87
2018-01-27T10:49:21.572Z,6.75
2018-01-27T10:50:21.388Z,6.74
2018-01-27T10:51:21.721Z,6.74
2018-01-27T10:52:20.748Z,6.75
2018-01-27T10:53:20.825Z,6.66
2018-01-27T10:54:21.640Z,6.75
2018-01-27T10:55:19.791Z,6.76
2018-01-27T10:56:19.963Z,6.68
2018-01-27T10:57:21.298Z,6.66
2018-01-27T10:58:21.565Z,6.71
2018-01-27T10:59:27.800Z,6.77
2018-01-27T11:00:23.184Z,6.75
2018-01-27T11:01:20.676Z,6.71
2018-01-27T11:02:19.168Z,6.69
2018-01-27T11:03:19.036Z,6.72
2018-01-27T11:04:21.725Z,6.71
2018-01-27T11:05:19.836Z,6.7
2018-01-27T11:06:19.112Z,6.66
2018-01-27T11:07:25.100Z,6.6
2018-01-27T11:08:23.196Z,6.6
2018-01-27T11:09:21.448Z,6.59
2018-01-27T11:10:20.828Z,6.61
2018-01-27T11:11:21.988Z,6.64
2018-01-27T11:12:19.456Z,6.62
2018-01-27T11:13:22.704Z,6.66
2018-01-27T11:14:20.370Z,6.62
2018-01-27T11:15:19.995Z,6.68
2018-01-27T11:16:20.080Z,6.69
2018-01-27T11:17:23.238Z,6.62
2018-01-27T11:18:20.525Z,6.67
2018-01-27T11:19:20.314Z,6.69
2018-01-27T11:20:20.832Z,6.66
2018-01-27T11:21:21.390Z,6.67
2018-01-27T11:22:19.629Z,6.67
2018-01-27T11:23:22.851Z,6.64
2018-01-27T11:24:20.106Z,6.67
2018-01-27T11:25:19.725Z,6.69
2018-01-27T11:26:21.542Z,6.76
2018-01-27T11:27:23.978Z,6.77
2018-01-27T11:28:24.445Z,6.76
2018-01-27T11:29:29.001Z,6.77
2018-01-27T11:30:20.028Z,6.74
2018-01-27T11:31:22.599Z,6.73
2018-01-27T11:32:20.802Z,6.76
2018-01-27T11:33:20.560Z,6.76
2018-01-27T11:34:31.309Z,6.77
2018-01-27T11:35:22.091Z,6.8
2018-01-27T11:36:22.116Z,6.79
2018-01-27T11:37:26.676Z,6.77
2018-01-27T11:38:18.819Z,6.77
2018-01-27T11:39:18.754Z,6.79
2018-01-27T11:40:19.138Z,6.73
2018-01-27T11:41:18.839Z,6.76
2018-01-27T11:42:18.979Z,6.75
2018-01-27T11:43:19.322Z,6.64
2018-01-27T11:44:19.195Z,6.66
2018-01-27T11:45:19.117Z,6.71
2018-01-27T11:46:19.429Z,6.73
2018-01-27T11:47:19.089Z,6.73
2018-01-27T11:48:18.858Z,6.74
2018-01-27T11:49:19.036Z,6.75
2018-01-27T11:50:19.083Z,6.77
2018-01-27T11:51:19.322Z,6.77
2018-01-27T11:52:19.164Z,6.77
2018-01-27T11:53:19.140Z,6.74
2018-01-27T11:54:19.006Z,6.68
2018-01-27T11:55:19.307Z,6.65
2018-01-27T11:56:19.176Z,6.69
2018-01-27T11:57:19.173Z,6.72
2018-01-27T11:58:18.988Z,6.75
2018-01-27T11:59:18.992Z,6.76
2018-01-27T12:00:18.987Z,6.77
2018-01-27T12:01:19.080Z,6.74
2018-01-27T12:02:19.001Z,6.74
2018-01-27T12:03:19.188Z,6.76
2018-01-27T12:04:18.884Z,6.76
2018-01-27T12:05:19.279Z,6.75
2018-01-27T12:06:18.889Z,6.73
2018-01-27T12:07:19.355Z,6.74
2018-01-27T12:08:19.295Z,6.76
2018-01-27T12:09:19.039Z,6.75
2018-01-27T12:10:19.613Z,6.78
2018-01-27T12:11:19.166Z,6.78
2018-01-27T12:12:19.063Z,6.76
2018-01-27T12:13:19.121Z,6.77
2018-01-27T12:14:18.933Z,6.78
2018-01-27T12:15:19.122Z,6.79
2018-01-27T12:16:19.231Z,6.81
2018-01-27T12:17:19.093Z,6.84
2018-01-27T12:18:19.135Z,6.82
2018-01-27T12:19:19.196Z,6.81
2018-01-27T12:20:18.961Z,6.79
2018-01-27T12:21:19.277Z,6.82
2018-01-27T12:22:19.129Z,6.81
2018-01-27T12:23:19.323Z,6.82
2018-01-27T12:24:19.141Z,6.82
2018-01-27T12:25:18.976Z,6.8
2018-01-27T12:26:19.113Z,6.82
2018-01-27T12:27:19.267Z,6.82
2018-01-27T12:30:20.251Z,6.85
2018-01-27T12:31:19.210Z,6.87
2018-01-27T12:32:19.166Z,6.8
2018-01-27T12:33:19.326Z,6.77
2018-01-27T12:34:19.212Z,6.8
2018-01-27T12:35:19.265Z,6.84
2018-01-27T12:36:19.204Z,6.84
2018-01-27T12:37:19.136Z,6.86
2018-01-27T12:38:18.902Z,6.85
2018-01-27T12:39:19.253Z,6.85
2018-01-27T12:40:19.192Z,6.83
2018-01-27T12:41:19.119Z,6.85
2018-01-27T12:42:19.149Z,6.86
2018-01-27T12:43:19.018Z,6.84
2018-01-27T12:44:19.104Z,6.84
2018-01-27T12:45:19.244Z,6.8
2018-01-27T12:46:19.095Z,6.79
2018-01-27T12:47:19.146Z,6.8
2018-01-27T12:48:19.129Z,6.84
2018-01-27T12:49:19.208Z,6.87
2018-01-27T12:50:18.993Z,6.88
2018-01-27T12:51:19.134Z,6.87
2018-01-27T12:52:19.483Z,6.88
2018-01-27T12:53:19.420Z,6.87
2018-01-27T12:54:19.426Z,6.87
2018-01-27T12:55:19.313Z,6.86
2018-01-27T12:56:19.173Z,6.86
2018-01-27T12:57:19.363Z,6.86
2018-01-27T12:58:19.372Z,6.89
2018-01-27T12:59:19.153Z,6.89
2018-01-27T13:00:19.455Z,6.89
2018-01-27T13:01:19.362Z,6.9
2018-01-27T13:02:19.366Z,6.92
2018-01-27T13:03:19.551Z,6.89
2018-01-27T13:04:19.420Z,6.85
2018-01-27T13:05:19.440Z,6.87
2018-01-27T13:06:19.497Z,6.86
2018-01-27T13:07:19.387Z,6.85
2018-01-27T13:08:19.255Z,6.85
2018-01-27T13:09:19.266Z,6.85
2018-01-27T13:10:19.226Z,6.89
2018-01-27T13:11:19.318Z,6.92
2018-01-27T13:12:19.150Z,6.85
2018-01-27T13:13:19.204Z,6.84
2018-01-27T13:14:19.119Z,6.83
2018-01-27T13:15:22.066Z,6.81
2018-01-27T13:16:19.358Z,6.84
2018-01-27T13:17:19.379Z,6.83
2018-01-27T13:18:19.405Z,6.84
2018-01-27T13:19:19.340Z,6.9
2018-01-27T13:20:19.411Z,6.87
2018-01-27T13:21:19.508Z,6.91
2018-01-27T13:22:19.350Z,6.9
2018-01-27T13:23:19.356Z,6.89
2018-01-27T13:24:19.312Z,6.89
2018-01-27T13:25:19.425Z,6.9
2018-01-27T13:26:19.248Z,6.89
2018-01-27T13:27:23.426Z,6.89
2018-01-27T13:28:19.173Z,6.9
2018-01-27T13:29:19.427Z,6.9